Time;durP1;ratioP1;P1;durP2;ratioP2;P2;SDS_P1;SDS_P2;PMS_P1;PMS_P2;Temp;Humidity;BMP_temperature;BMP_pressure;BME280_temperature;BME280_humidity;BME280_pressure;Samples;Min_cycle;Max_cycle;Signal;HPM_P1;HPM_P2
2021/10/22 00:01:32;;;;;;;;;15.50;14.25;;;;;;;;5052544;28;11441;-83
2021/10/22 00:04:00;;;;;;;;;10.50;7.25;;;;;;;;5054723;28;11701;-85
2021/10/22 00:06:27;;;;;;;;;5.25;5.00;;;;;;;;5043849;28;11641;-84
2021/10/22 00:08:55;;;;;;;;;6.00;6.00;;;;;;;;5050403;28;11554;-80
2021/10/22 00:11:22;;;;;;;;;9.00;6.75;;;;;;;;5027742;28;11518;-81
2021/10/22 00:13:49;;;;;;;;;8.25;5.75;;;;;;;;5049326;28;11629;-80
2021/10/22 00:16:18;;;;;;;;;5.75;5.75;;;;;;;;5031765;28;12350;-80
2021/10/22 00:18:46;;;;;;;;;5.75;5.75;;;;;;;;5042155;28;11498;-82
2021/10/22 00:21:14;;;;;;;;;6.75;6.75;;;;;;;;5048117;28;11478;-80
2021/10/22 00:23:41;;;;;;;;;7.50;7.00;;;;;;;;5044569;28;11460;-81
2021/10/22 00:26:10;;;;;;;;;5.50;5.50;;;;;;;;5048612;28;11584;-85
2021/10/22 00:28:37;;;;;;;;;7.00;7.00;;;;;;;;5045848;28;11525;-86
2021/10/22 00:31:04;;;;;;;;;7.00;7.00;;;;;;;;5051302;28;11452;-85
2021/10/22 00:33:32;;;;;;;;;4.75;4.75;;;;;;;;5040701;28;11510;-84
2021/10/22 00:36:02;;;;;;;;;5.50;5.50;;;;;;;;5058290;28;11456;-81
2021/10/22 00:38:29;;;;;;;;;6.00;6.00;;;;;;;;5045732;28;11558;-87
2021/10/22 00:40:57;;;;;;;;;5.00;5.00;;;;;;;;5026272;28;11577;-85
2021/10/22 00:43:28;;;;;;;;;6.75;6.75;;;;;;;;5043915;28;11445;-82
2021/10/22 00:45:56;;;;;;;;;5.75;5.75;;;;;;;;5053583;28;12145;-81
2021/10/22 00:48:23;;;;;;;;;6.25;6.25;;;;;;;;5051487;28;11442;-82
2021/10/22 00:50:55;;;;;;;;;5.00;5.00;;;;;;;;5042641;28;11487;-82
2021/10/22 00:53:25;;;;;;;;;8.75;8.75;;;;;;;;5045753;28;11494;-86
2021/10/22 00:55:52;;;;;;;;;7.50;7.50;;;;;;;;5044203;28;11529;-84
2021/10/22 00:58:20;;;;;;;;;9.50;6.50;;;;;;;;5028876;28;11588;-87
2021/10/22 01:00:48;;;;;;;;;7.50;6.00;;;;;;;;5026820;28;11466;-87
2021/10/22 01:03:15;;;;;;;;;5.75;5.75;;;;;;;;5058820;28;11613;-88
2021/10/22 01:05:44;;;;;;;;;11.25;9.25;;;;;;;;5049771;28;11501;-88
2021/10/22 01:08:12;;;;;;;;;9.00;9.00;;;;;;;;5043937;28;11637;-89
2021/10/22 01:10:41;;;;;;;;;10.00;8.00;;;;;;;;5044988;28;11670;-88
2021/10/22 01:13:09;;;;;;;;;16.50;10.00;;;;;;;;5042863;28;11467;-85
2021/10/22 01:15:36;;;;;;;;;13.75;11.25;;;;;;;;5048406;28;11555;-88
2021/10/22 01:18:04;;;;;;;;;10.75;8.00;;;;;;;;5032295;28;11636;-90
2021/10/22 01:20:31;;;;;;;;;15.50;13.00;;;;;;;;5056579;28;12197;-86
2021/10/22 01:23:00;;;;;;;;;6.00;6.00;;;;;;;;5027800;28;11638;-83
2021/10/22 01:25:28;;;;;;;;;14.00;11.50;;;;;;;;5048280;28;11586;-84
2021/10/22 01:27:56;;;;;;;;;9.75;9.75;;;;;;;;5049600;28;11536;-80
2021/10/22 01:30:27;;;;;;;;;10.00;10.00;;;;;;;;5042723;28;11494;-83
2021/10/22 01:33:03;;;;;;;;;11.25;11.25;;;;;;;;5043335;28;11644;-83
2021/10/22 01:35:31;;;;;;;;;12.75;10.00;;;;;;;;5025169;28;11600;-85
2021/10/22 01:38:02;;;;;;;;;10.00;8.25;;;;;;;;5046970;28;11533;-88
2021/10/22 01:40:31;;;;;;;;;11.75;10.50;;;;;;;;5045451;28;11511;-87
2021/10/22 01:42:59;;;;;;;;;10.50;10.50;;;;;;;;5043551;28;11657;-87
2021/10/22 01:45:26;;;;;;;;;13.25;11.75;;;;;;;;5033011;28;11534;-86
2021/10/22 01:47:53;;;;;;;;;8.00;8.00;;;;;;;;5042154;28;11648;-87
2021/10/22 01:50:21;;;;;;;;;13.25;11.00;;;;;;;;5025982;28;11614;-85
2021/10/22 01:52:49;;;;;;;;;7.75;7.75;;;;;;;;5039842;28;11536;-86
2021/10/22 01:55:18;;;;;;;;;7.50;7.50;;;;;;;;5043220;28;11507;-88
2021/10/22 01:57:45;;;;;;;;;13.00;10.25;;;;;;;;5042731;28;11485;-83
2021/10/22 02:00:13;;;;;;;;;12.50;9.75;;;;;;;;5044983;28;13190;-87
2021/10/22 02:02:40;;;;;;;;;10.50;7.50;;;;;;;;5029649;28;11513;-87
2021/10/22 02:05:08;;;;;;;;;8.00;8.00;;;;;;;;5052122;28;11996;-83
2021/10/22 02:07:36;;;;;;;;;11.50;10.75;;;;;;;;5050957;28;11519;-84
2021/10/22 02:10:04;;;;;;;;;10.00;10.00;;;;;;;;5041835;28;11644;-85
2021/10/22 02:12:33;;;;;;;;;5.00;5.00;;;;;;;;5044108;28;11651;-84
2021/10/22 02:15:00;;;;;;;;;7.50;7.50;;;;;;;;5043462;28;11529;-84
2021/10/22 02:17:28;;;;;;;;;7.00;7.00;;;;;;;;5042490;28;11504;-86
2021/10/22 02:19:55;;;;;;;;;10.00;7.50;;;;;;;;5025946;28;11577;-86
2021/10/22 02:22:23;;;;;;;;;10.00;8.75;;;;;;;;5048678;28;11650;-85
2021/10/22 02:24:50;;;;;;;;;6.75;6.00;;;;;;;;5048403;28;11554;-86
2021/10/22 02:27:17;;;;;;;;;6.00;6.00;;;;;;;;5042722;28;11465;-88
2021/10/22 02:29:46;;;;;;;;;13.25;9.00;;;;;;;;5044658;28;11541;-88
2021/10/22 02:32:13;;;;;;;;;10.00;7.50;;;;;;;;5036950;28;11483;-87
2021/10/22 02:34:40;;;;;;;;;6.50;6.50;;;;;;;;5041729;28;11619;-88
2021/10/22 02:37:08;;;;;;;;;8.00;8.00;;;;;;;;5046049;28;11613;-84
2021/10/22 02:39:36;;;;;;;;;13.50;10.75;;;;;;;;5042886;28;12277;-87
2021/10/22 02:42:05;;;;;;;;;9.00;6.50;;;;;;;;5042031;28;11535;-88
2021/10/22 02:44:32;;;;;;;;;11.75;11.75;;;;;;;;5043912;28;11515;-86
2021/10/22 02:47:02;;;;;;;;;10.00;10.00;;;;;;;;5034315;28;11471;-87
2021/10/22 02:49:30;;;;;;;;;13.75;11.25;;;;;;;;5047728;28;11501;-87
2021/10/22 02:51:57;;;;;;;;;9.00;9.00;;;;;;;;5047591;28;11555;-86
2021/10/22 02:54:25;;;;;;;;;14.00;14.00;;;;;;;;5029561;28;11515;-88
2021/10/22 02:56:52;;;;;;;;;12.25;11.00;;;;;;;;5047007;28;11500;-84
2021/10/22 02:59:20;;;;;;;;;11.25;11.25;;;;;;;;5046404;28;11509;-87
2021/10/22 03:01:47;;;;;;;;;9.00;9.00;;;;;;;;5044585;28;11491;-89
2021/10/22 03:04:16;;;;;;;;;10.50;9.75;;;;;;;;5032828;28;11560;-86
2021/10/22 03:06:44;;;;;;;;;8.00;7.75;;;;;;;;5050334;28;11637;-88
2021/10/22 03:09:11;;;;;;;;;8.50;8.50;;;;;;;;5053308;28;11521;-90
2021/10/22 03:11:39;;;;;;;;;7.50;6.00;;;;;;;;5031002;28;11619;-89
2021/10/22 03:14:06;;;;;;;;;10.75;10.75;;;;;;;;5040473;28;12302;-86
2021/10/22 03:16:33;;;;;;;;;10.00;10.00;;;;;;;;5052678;28;11525;-87
2021/10/22 03:19:00;;;;;;;;;13.75;11.25;;;;;;;;5052216;28;11609;-88
2021/10/22 03:21:29;;;;;;;;;12.75;12.75;;;;;;;;5054947;28;11778;-84
2021/10/22 03:23:57;;;;;;;;;12.75;11.25;;;;;;;;5046672;28;11609;-88
2021/10/22 03:26:25;;;;;;;;;12.75;9.75;;;;;;;;5052672;28;11604;-87
2021/10/22 03:28:53;;;;;;;;;11.00;11.00;;;;;;;;5044501;28;11664;-89
2021/10/22 03:31:20;;;;;;;;;7.75;7.75;;;;;;;;5044238;28;11649;-88
2021/10/22 03:33:47;;;;;;;;;12.25;10.50;;;;;;;;5051229;28;11539;-86
2021/10/22 03:36:14;;;;;;;;;13.00;10.00;;;;;;;;5049704;28;12117;-87
2021/10/22 03:38:43;;;;;;;;;18.00;11.00;;;;;;;;5046015;28;11785;-86
2021/10/22 03:41:10;;;;;;;;;13.25;12.00;;;;;;;;5041760;28;11600;-86
2021/10/22 03:43:38;;;;;;;;;12.50;12.50;;;;;;;;5045130;28;11558;-87
2021/10/22 03:46:06;;;;;;;;;10.75;10.75;;;;;;;;5047542;28;11621;-89
2021/10/22 03:48:33;;;;;;;;;12.50;11.00;;;;;;;;5048705;28;11570;-88
2021/10/22 03:51:00;;;;;;;;;10.00;10.00;;;;;;;;5045965;28;11497;-89
2021/10/22 03:53:28;;;;;;;;;11.25;8.75;;;;;;;;5044935;28;11549;-89
2021/10/22 03:55:57;;;;;;;;;10.00;10.00;;;;;;;;5047074;28;11513;-89
2021/10/22 03:58:24;;;;;;;;;16.50;12.50;;;;;;;;5046002;28;11557;-89
2021/10/22 04:00:51;;;;;;;;;13.00;13.00;;;;;;;;5053612;28;11580;-88
2021/10/22 04:03:19;;;;;;;;;9.50;9.50;;;;;;;;5047747;28;11756;-87
2021/10/22 04:05:46;;;;;;;;;8.75;8.75;;;;;;;;5049256;28;11573;-89
2021/10/22 04:08:15;;;;;;;;;12.75;12.75;;;;;;;;5035573;28;11502;-85
2021/10/22 04:10:48;;;;;;;;;10.00;9.00;;;;;;;;5050273;28;11566;-84
2021/10/22 04:13:17;;;;;;;;;12.00;9.50;;;;;;;;5046065;28;11510;-81
2021/10/22 04:15:44;;;;;;;;;13.75;12.50;;;;;;;;5037669;28;11474;-82
2021/10/22 04:18:12;;;;;;;;;9.25;9.25;;;;;;;;5052647;28;11637;-82
2021/10/22 04:20:39;;;;;;;;;10.00;10.00;;;;;;;;5047918;28;12291;-81
2021/10/22 04:23:07;;;;;;;;;16.00;12.25;;;;;;;;5055641;28;11512;-82
2021/10/22 04:25:34;;;;;;;;;9.75;9.75;;;;;;;;5049129;28;12417;-86
2021/10/22 04:28:01;;;;;;;;;9.50;9.50;;;;;;;;5044162;28;11609;-82
2021/10/22 04:30:30;;;;;;;;;16.50;14.25;;;;;;;;5044949;28;11553;-83
2021/10/22 04:32:57;;;;;;;;;18.00;13.50;;;;;;;;5043192;28;11546;-84
2021/10/22 04:35:25;;;;;;;;;12.75;10.50;;;;;;;;5045496;28;11537;-83
2021/10/22 04:38:12;;;;;;;;;25.00;19.00;;;;;;;;5043291;28;11608;-84
2021/10/22 04:40:41;;;;;;;;;14.50;10.00;;;;;;;;5039996;28;11704;-84
2021/10/22 04:43:13;;;;;;;;;11.00;11.00;;;;;;;;5045356;28;11665;-83
2021/10/22 04:49:00;;;;;;;;;12.50;9.75;;;;;;;;5134893;22;11663;-82
2021/10/22 04:51:27;;;;;;;;;15.75;15.25;;;;;;;;5052847;28;11466;-83
2021/10/22 04:53:54;;;;;;;;;13.50;9.50;;;;;;;;5045473;28;12252;-83
2021/10/22 04:56:22;;;;;;;;;10.00;10.00;;;;;;;;5052742;28;11523;-83
2021/10/22 04:58:49;;;;;;;;;19.25;10.00;;;;;;;;5049050;28;11642;-83
2021/10/22 05:01:16;;;;;;;;;15.25;11.75;;;;;;;;5043604;28;11553;-84
2021/10/22 05:03:43;;;;;;;;;8.00;8.00;;;;;;;;5043764;28;11684;-83
2021/10/22 05:06:12;;;;;;;;;10.50;10.50;;;;;;;;5044110;28;11501;-83
2021/10/22 05:08:42;;;;;;;;;8.50;7.25;;;;;;;;5039337;28;11478;-83
2021/10/22 05:11:09;;;;;;;;;11.50;9.50;;;;;;;;5051090;28;11487;-83
2021/10/22 05:13:36;;;;;;;;;12.00;12.00;;;;;;;;5045117;28;11523;-83
2021/10/22 05:16:04;;;;;;;;;9.75;9.25;;;;;;;;5047830;28;11513;-82
2021/10/22 05:18:32;;;;;;;;;11.25;9.75;;;;;;;;5054644;28;11569;-82
2021/10/22 05:20:59;;;;;;;;;11.50;11.50;;;;;;;;5021208;28;11655;-82
2021/10/22 05:23:28;;;;;;;;;11.00;11.00;;;;;;;;5042927;28;11681;-85
2021/10/22 05:25:56;;;;;;;;;13.00;12.75;;;;;;;;5043377;28;11535;-85
2021/10/22 05:28:23;;;;;;;;;12.25;9.50;;;;;;;;5020843;28;11671;-80
2021/10/22 05:30:51;;;;;;;;;10.75;9.50;;;;;;;;5040678;28;12329;-80
2021/10/22 05:33:19;;;;;;;;;9.25;9.00;;;;;;;;5022377;28;11539;-80
2021/10/22 05:35:46;;;;;;;;;12.00;11.00;;;;;;;;5039431;28;11539;-79
2021/10/22 05:38:14;;;;;;;;;10.00;10.00;;;;;;;;5042123;28;11525;-79
2021/10/22 05:40:43;;;;;;;;;12.75;12.75;;;;;;;;5009814;28;11587;-78
2021/10/22 05:43:10;;;;;;;;;11.25;9.00;;;;;;;;5026115;28;11548;-79
2021/10/22 05:45:38;;;;;;;;;12.25;12.25;;;;;;;;5020012;28;11533;-78
2021/10/22 05:48:05;;;;;;;;;17.00;12.75;;;;;;;;5039535;28;11566;-78
2021/10/22 05:50:33;;;;;;;;;9.50;7.75;;;;;;;;5043478;28;11543;-79
2021/10/22 05:53:00;;;;;;;;;10.25;10.00;;;;;;;;5043977;28;11637;-79
2021/10/22 05:55:29;;;;;;;;;13.00;11.50;;;;;;;;5038298;28;11586;-78
2021/10/22 05:57:58;;;;;;;;;12.75;11.00;;;;;;;;5044093;28;11671;-78
2021/10/22 06:00:25;;;;;;;;;13.50;11.00;;;;;;;;5025522;28;11453;-78
2021/10/22 06:02:53;;;;;;;;;9.75;9.75;;;;;;;;5043414;28;11518;-79
2021/10/22 06:05:21;;;;;;;;;14.00;14.00;;;;;;;;5041825;28;11544;-78
2021/10/22 06:07:48;;;;;;;;;10.00;10.00;;;;;;;;5044274;28;11686;-78
2021/10/22 06:10:16;;;;;;;;;12.25;11.50;;;;;;;;5044013;28;11514;-78
2021/10/22 06:12:44;;;;;;;;;17.75;13.00;;;;;;;;5048178;28;11533;-78
2021/10/22 06:15:13;;;;;;;;;12.75;12.50;;;;;;;;5052507;28;11632;-78
2021/10/22 06:17:40;;;;;;;;;15.50;15.50;;;;;;;;5053488;28;11651;-78
2021/10/22 06:20:12;;;;;;;;;17.25;12.75;;;;;;;;5034915;28;11782;-79
2021/10/22 06:23:52;;;;;;;;;5.25;5.00;;;;;;;;5046419;28;11624;-78
2021/10/22 06:25:39;;;;;;;;;13.50;13.50;;;;;;;;5045817;28;11493;-78
2021/10/22 06:28:06;;;;;;;;;14.50;14.50;;;;;;;;5027626;28;11531;-78
2021/10/22 06:30:35;;;;;;;;;16.75;16.75;;;;;;;;5025860;28;11490;-78
2021/10/22 06:33:03;;;;;;;;;14.00;13.00;;;;;;;;5046000;28;11556;-78
2021/10/22 06:35:30;;;;;;;;;13.50;13.50;;;;;;;;5042059;28;11542;-80
2021/10/22 06:37:57;;;;;;;;;16.50;13.00;;;;;;;;5044439;28;11555;-79
2021/10/22 06:40:24;;;;;;;;;17.75;13.25;;;;;;;;5046844;28;14153;-80
2021/10/22 06:42:52;;;;;;;;;20.00;14.00;;;;;;;;5047996;28;11540;-79
2021/10/22 06:45:19;;;;;;;;;19.75;14.25;;;;;;;;5050911;28;11563;-80
2021/10/22 06:47:48;;;;;;;;;14.75;12.50;;;;;;;;5043325;28;11551;-80
2021/10/22 06:50:17;;;;;;;;;13.00;13.00;;;;;;;;5045442;28;11557;-77
2021/10/22 06:52:45;;;;;;;;;11.00;10.75;;;;;;;;5040715;28;11690;-83
2021/10/22 06:55:12;;;;;;;;;21.75;15.25;;;;;;;;5050571;28;11592;-79
2021/10/22 06:57:40;;;;;;;;;16.75;16.75;;;;;;;;5045808;28;11621;-80
2021/10/22 07:00:08;;;;;;;;;12.00;10.25;;;;;;;;5047526;28;11489;-77
2021/10/22 07:02:47;;;;;;;;;17.50;13.50;;;;;;;;5044004;28;12404;-76
2021/10/22 07:05:26;;;;;;;;;13.50;13.50;;;;;;;;5050400;28;11545;-76
2021/10/22 07:07:53;;;;;;;;;19.75;17.25;;;;;;;;5046191;28;11519;-76
2021/10/22 07:10:21;;;;;;;;;17.25;12.75;;;;;;;;5053978;28;11651;-76
2021/10/22 07:12:48;;;;;;;;;13.00;13.00;;;;;;;;5049767;28;11556;-76
2021/10/22 07:15:17;;;;;;;;;18.25;17.00;;;;;;;;5044525;28;11519;-76
2021/10/22 07:17:45;;;;;;;;;20.25;17.75;;;;;;;;5053347;28;11553;-80
2021/10/22 07:20:15;;;;;;;;;14.50;12.75;;;;;;;;5040695;28;11575;-75
2021/10/22 07:22:48;;;;;;;;;12.75;12.75;;;;;;;;5035671;28;11655;-79
2021/10/22 07:25:15;;;;;;;;;14.00;14.00;;;;;;;;5040863;28;11615;-79
2021/10/22 07:27:43;;;;;;;;;12.00;9.25;;;;;;;;5043796;28;11482;-79
2021/10/22 07:30:11;;;;;;;;;13.75;11.50;;;;;;;;5027017;28;11509;-79
2021/10/22 07:32:39;;;;;;;;;10.00;7.50;;;;;;;;5055884;28;11559;-76
2021/10/22 07:35:08;;;;;;;;;12.50;9.75;;;;;;;;5063243;28;11590;-76
2021/10/22 07:37:37;;;;;;;;;10.75;7.00;;;;;;;;5038649;28;11557;-77
2021/10/22 07:40:06;;;;;;;;;10.50;10.50;;;;;;;;5040779;28;11499;-79
2021/10/22 07:42:34;;;;;;;;;14.75;12.25;;;;;;;;5045914;28;11541;-79
2021/10/22 07:45:03;;;;;;;;;12.25;11.25;;;;;;;;5021868;28;11587;-79
2021/10/22 07:47:33;;;;;;;;;13.25;13.00;;;;;;;;5041760;28;11532;-80
2021/10/22 07:50:00;;;;;;;;;12.50;12.50;;;;;;;;5044996;28;11497;-81
2021/10/22 07:52:31;;;;;;;;;17.25;17.25;;;;;;;;5045612;28;11492;-82
2021/10/22 07:55:00;;;;;;;;;18.75;18.75;;;;;;;;5040012;28;11692;-80
2021/10/22 07:57:29;;;;;;;;;14.00;11.75;;;;;;;;5046688;28;11558;-78
2021/10/22 07:59:57;;;;;;;;;12.00;10.00;;;;;;;;5043146;28;11563;-77
2021/10/22 08:02:25;;;;;;;;;11.75;10.00;;;;;;;;5044842;28;11412;-78
2021/10/22 08:04:53;;;;;;;;;9.75;9.75;;;;;;;;5039401;28;11548;-78
2021/10/22 08:07:23;;;;;;;;;13.25;10.25;;;;;;;;5042208;28;11516;-77
2021/10/22 08:09:51;;;;;;;;;8.50;7.25;;;;;;;;5065730;28;11522;-77
2021/10/22 08:12:20;;;;;;;;;10.00;9.00;;;;;;;;5055877;28;11529;-78
2021/10/22 08:14:48;;;;;;;;;10.75;9.25;;;;;;;;5051560;28;11571;-77
2021/10/22 08:17:17;;;;;;;;;13.25;13.25;;;;;;;;5065455;28;11530;-77
2021/10/22 08:19:46;;;;;;;;;14.50;14.00;;;;;;;;5064396;28;11550;-77
2021/10/22 08:22:29;;;;;;;;;14.00;12.00;;;;;;;;5065602;28;11623;-77
2021/10/22 08:25:00;;;;;;;;;9.50;9.50;;;;;;;;5060709;28;11524;-78
2021/10/22 08:27:32;;;;;;;;;14.25;13.50;;;;;;;;5064631;28;11520;-77
2021/10/22 08:29:59;;;;;;;;;10.00;10.00;;;;;;;;5047339;28;11559;-76
2021/10/22 08:32:28;;;;;;;;;14.00;14.00;;;;;;;;5045729;28;11431;-77
2021/10/22 08:34:55;;;;;;;;;9.00;9.00;;;;;;;;5064258;28;11507;-76
2021/10/22 08:37:24;;;;;;;;;11.25;9.50;;;;;;;;5056215;28;11445;-77
2021/10/22 08:39:52;;;;;;;;;11.00;11.00;;;;;;;;5033227;28;12295;-77
2021/10/22 08:42:23;;;;;;;;;12.75;9.75;;;;;;;;5063910;28;12404;-77
2021/10/22 08:44:52;;;;;;;;;10.00;10.00;;;;;;;;5046732;28;11489;-77
2021/10/22 08:47:22;;;;;;;;;15.50;12.25;;;;;;;;5064904;28;11442;-78
2021/10/22 08:49:49;;;;;;;;;7.50;7.50;;;;;;;;5058639;28;11504;-77
2021/10/22 08:52:17;;;;;;;;;10.00;10.00;;;;;;;;5064568;28;11565;-77
2021/10/22 08:54:44;;;;;;;;;11.50;10.00;;;;;;;;5063807;28;11554;-77
2021/10/22 08:57:11;;;;;;;;;10.00;10.00;;;;;;;;5064626;28;11467;-77
2021/10/22 08:59:39;;;;;;;;;8.75;8.75;;;;;;;;5050759;28;11508;-78
2021/10/22 09:02:20;;;;;;;;;8.75;7.75;;;;;;;;5063055;28;11445;-77
2021/10/22 09:04:49;;;;;;;;;10.00;7.25;;;;;;;;5053369;28;11149;-78
2021/10/22 09:07:18;;;;;;;;;10.00;8.00;;;;;;;;5055108;28;11054;-78
2021/10/22 09:09:46;;;;;;;;;0.25;0.25;;;;;;;;5047012;28;11043;-78
2021/10/22 09:12:14;;;;;;;;;7.00;7.00;;;;;;;;5045238;28;10793;-77
2021/10/22 09:14:58;;;;;;;;;7.25;7.25;;;;;;;;5054730;28;10984;-77
2021/10/22 09:17:38;;;;;;;;;8.00;8.00;;;;;;;;5046616;28;10970;-77
2021/10/22 09:20:08;;;;;;;;;7.50;7.00;;;;;;;;5063030;28;10773;-77
2021/10/22 09:22:35;;;;;;;;;8.00;6.00;;;;;;;;5062595;28;10720;-77
2021/10/22 09:25:06;;;;;;;;;6.00;6.00;;;;;;;;5063111;28;10759;-77
2021/10/22 09:27:37;;;;;;;;;7.25;6.25;;;;;;;;5064216;28;10759;-77
2021/10/22 09:30:07;;;;;;;;;8.50;8.00;;;;;;;;5063191;28;10468;-78
2021/10/22 09:32:34;;;;;;;;;5.50;5.50;;;;;;;;5064060;28;10595;-77
2021/10/22 09:35:03;;;;;;;;;11.00;11.00;;;;;;;;5064155;28;10543;-77
2021/10/22 09:37:39;;;;;;;;;6.00;6.00;;;;;;;;5057606;28;10575;-77
2021/10/22 09:40:08;;;;;;;;;6.50;3.75;;;;;;;;5047376;28;10610;-77
2021/10/22 09:42:37;;;;;;;;;8.50;6.50;;;;;;;;5054586;28;10344;-77
2021/10/22 09:45:05;;;;;;;;;7.75;6.00;;;;;;;;5061505;28;10416;-77
2021/10/22 09:47:32;;;;;;;;;3.00;3.00;;;;;;;;5063122;28;10262;-77
2021/10/22 09:50:10;;;;;;;;;7.00;4.00;;;;;;;;5063291;28;10144;-77
2021/10/22 09:52:38;;;;;;;;;4.75;3.50;;;;;;;;5064016;28;10010;-76
2021/10/22 09:55:08;;;;;;;;;5.00;5.00;;;;;;;;5062564;28;10076;-76
2021/10/22 09:57:35;;;;;;;;;8.00;6.00;;;;;;;;5057476;28;9955;-77
2021/10/22 10:00:06;;;;;;;;;6.25;6.25;;;;;;;;5048666;28;9990;-76
2021/10/22 10:02:35;;;;;;;;;5.50;3.75;;;;;;;;5061047;28;9926;-76
2021/10/22 10:05:06;;;;;;;;;4.00;4.00;;;;;;;;5054609;28;9704;-76
2021/10/22 10:07:36;;;;;;;;;5.25;5.25;;;;;;;;5063068;28;9869;-76
2021/10/22 10:10:04;;;;;;;;;5.50;5.00;;;;;;;;5064259;28;9630;-76
2021/10/22 10:12:32;;;;;;;;;4.75;4.75;;;;;;;;5062932;28;9739;-76
2021/10/22 10:14:59;;;;;;;;;3.00;3.00;;;;;;;;5054863;28;10204;-75
2021/10/22 10:17:27;;;;;;;;;7.33;7.00;;;;;;;;5062776;28;9527;-77
2021/10/22 10:19:55;;;;;;;;;5.00;4.00;;;;;;;;5063484;28;9353;-76
2021/10/22 10:22:29;;;;;;;;;3.00;3.00;;;;;;;;5063311;28;9194;-77
2021/10/22 10:25:01;;;;;;;;;2.00;2.00;;;;;;;;5063279;28;9278;-76
2021/10/22 10:27:28;;;;;;;;;4.67;4.67;;;;;;;;5063778;28;9213;-76
2021/10/22 10:29:58;;;;;;;;;6.50;4.75;;;;;;;;5062953;28;9020;-76
2021/10/22 10:32:28;;;;;;;;;4.00;4.00;;;;;;;;5065129;28;9586;-76
2021/10/22 10:34:56;;;;;;;;;4.75;3.75;;;;;;;;5062752;28;9678;-76
2021/10/22 10:37:35;;;;;;;;;3.25;3.25;;;;;;;;5058872;28;8876;-76
2021/10/22 10:40:16;;;;;;;;;4.50;3.50;;;;;;;;5055693;28;8942;-76
2021/10/22 10:42:48;;;;;;;;;5.75;4.00;;;;;;;;5050904;28;8878;-76
2021/10/22 10:45:39;;;;;;;;;2.75;2.75;;;;;;;;5043184;28;8862;-74
2021/10/22 10:48:08;;;;;;;;;2.25;1.00;;;;;;;;5044146;28;8874;-75
2021/10/22 10:50:47;;;;;;;;;2.00;2.00;;;;;;;;5055416;28;8900;-75
2021/10/22 10:53:18;;;;;;;;;4.00;2.00;;;;;;;;5031310;28;8870;-76
2021/10/22 10:55:51;;;;;;;;;2.50;2.50;;;;;;;;5040927;28;9000;-75
2021/10/22 10:58:22;;;;;;;;;3.00;3.00;;;;;;;;5048847;28;8918;-77
2021/10/22 11:00:53;;;;;;;;;3.00;3.00;;;;;;;;5042289;28;8796;-77
2021/10/22 11:03:26;;;;;;;;;2.50;2.50;;;;;;;;5066599;28;8876;-77
2021/10/22 11:06:04;;;;;;;;;2.00;2.00;;;;;;;;5047151;28;8843;-77
2021/10/22 11:08:40;;;;;;;;;3.75;2.00;;;;;;;;5057485;28;9024;-77
2021/10/22 11:11:23;;;;;;;;;1.00;1.00;;;;;;;;5067298;28;8892;-77
2021/10/22 11:13:52;;;;;;;;;1.75;1.75;;;;;;;;5062154;28;8938;-77
2021/10/22 11:16:35;;;;;;;;;1.50;1.50;;;;;;;;5054966;28;8876;-77
2021/10/22 11:19:05;;;;;;;;;2.00;2.00;;;;;;;;5055756;28;9016;-78
2021/10/22 11:21:34;;;;;;;;;4.00;2.33;;;;;;;;5053504;28;8952;-76
2021/10/22 11:24:03;;;;;;;;;2.00;2.00;;;;;;;;5034107;28;8946;-78
2021/10/22 11:26:33;;;;;;;;;3.00;3.00;;;;;;;;5065800;28;9081;-78
2021/10/22 11:29:02;;;;;;;;;5.00;3.33;;;;;;;;5052691;28;9028;-78
2021/10/22 11:31:39;;;;;;;;;2.00;2.00;;;;;;;;5061522;28;8978;-77
2021/10/22 11:34:08;;;;;;;;;4.00;3.00;;;;;;;;5047615;28;9185;-77
2021/10/22 11:36:37;;;;;;;;;2.67;2.00;;;;;;;;5041587;28;9036;-76
2021/10/22 11:39:17;;;;;;;;;8.67;3.00;;;;;;;;5047537;28;9203;-76
2021/10/22 11:41:45;;;;;;;;;6.33;3.00;;;;;;;;5064754;28;9139;-76
2021/10/22 11:44:13;;;;;;;;;2.00;2.00;;;;;;;;5043843;28;9172;-76
2021/10/22 11:46:43;;;;;;;;;2.33;2.33;;;;;;;;5064421;28;9192;-77
2021/10/22 11:49:27;;;;;;;;;3.67;3.67;;;;;;;;5065429;28;9158;-75
2021/10/22 11:51:55;;;;;;;;;2.00;2.00;;;;;;;;5040088;28;8964;-75
2021/10/22 11:54:23;;;;;;;;;4.50;1.00;;;;;;;;5066097;28;8995;-75
2021/10/22 11:56:52;;;;;;;;;2.00;2.00;;;;;;;;5051970;28;8853;-75
2021/10/22 11:59:22;;;;;;;;;2.00;2.00;;;;;;;;5053516;28;8874;-75
2021/10/22 12:01:49;;;;;;;;;2.25;2.25;;;;;;;;5035883;28;8835;-76
2021/10/22 12:04:34;;;;;;;;;1.00;1.00;;;;;;;;5061548;28;8851;-76
2021/10/22 12:07:04;;;;;;;;;4.00;2.75;;;;;;;;5065925;28;8844;-77
2021/10/22 12:09:33;;;;;;;;;3.00;1.75;;;;;;;;5064198;28;8895;-76
2021/10/22 12:12:04;;;;;;;;;1.50;1.50;;;;;;;;5066250;28;9849;-76
2021/10/22 12:14:36;;;;;;;;;0.75;0.75;;;;;;;;5052043;28;8942;-77
2021/10/22 12:17:05;;;;;;;;;0.00;0.00;;;;;;;;5065046;28;8888;-76
2021/10/22 12:19:33;;;;;;;;;0.00;0.00;;;;;;;;5064883;28;8860;-77
2021/10/22 12:22:00;;;;;;;;;1.50;1.50;;;;;;;;5051935;28;8871;-76
2021/10/22 12:24:42;;;;;;;;;3.50;2.00;;;;;;;;5065405;28;8872;-77
2021/10/22 12:27:12;;;;;;;;;1.00;1.00;;;;;;;;5046340;28;8888;-76
2021/10/22 12:29:54;;;;;;;;;2.25;0.50;;;;;;;;5056623;28;8870;-77
2021/10/22 12:32:43;;;;;;;;;0.75;0.75;;;;;;;;5051030;28;9595;-76
2021/10/22 12:35:22;;;;;;;;;0.75;0.75;;;;;;;;5060743;28;8868;-77
2021/10/22 12:38:06;;;;;;;;;1.00;1.00;;;;;;;;5053641;28;8924;-77
2021/10/22 12:40:38;;;;;;;;;0.00;0.00;;;;;;;;5050211;28;8881;-77
2021/10/22 12:43:09;;;;;;;;;1.00;1.00;;;;;;;;5065386;28;8891;-77
2021/10/22 12:45:42;;;;;;;;;1.00;1.00;;;;;;;;5045369;28;8866;-77
2021/10/22 12:48:11;;;;;;;;;1.00;1.00;;;;;;;;5053549;28;8884;-77
2021/10/22 12:50:41;;;;;;;;;0.00;0.00;;;;;;;;5047040;28;8853;-77
2021/10/22 12:53:12;;;;;;;;;0.50;0.50;;;;;;;;5064306;28;8890;-77
2021/10/22 12:55:40;;;;;;;;;0.50;0.50;;;;;;;;5064628;28;8890;-77
2021/10/22 12:58:18;;;;;;;;;2.75;2.75;;;;;;;;5063230;28;9706;-76
2021/10/22 13:00:48;;;;;;;;;1.00;1.00;;;;;;;;5054748;28;8821;-77
2021/10/22 13:03:18;;;;;;;;;2.67;1.00;;;;;;;;5062130;28;9072;-77
2021/10/22 13:05:46;;;;;;;;;1.00;1.00;;;;;;;;5060848;28;9068;-76
2021/10/22 13:11:20;;;;;;;;;2.00;2.00;;;;;;;;5038090;28;9878;-77
2021/10/22 13:22:04;;;;;;;;;3.00;1.25;;;;;;;;5054024;28;8983;-76
2021/10/22 13:24:31;;;;;;;;;1.00;1.00;;;;;;;;5045907;28;8866;-77
2021/10/22 13:26:59;;;;;;;;;1.00;1.00;;;;;;;;5046058;28;8999;-76
2021/10/22 13:29:28;;;;;;;;;1.00;1.00;;;;;;;;5064035;28;9807;-76
2021/10/22 13:31:55;;;;;;;;;1.00;1.00;;;;;;;;5062606;28;10276;-77
2021/10/22 13:34:22;;;;;;;;;1.00;1.00;;;;;;;;5061034;28;9626;-77
2021/10/22 13:36:50;;;;;;;;;2.33;1.67;;;;;;;;5059002;28;9103;-77
2021/10/22 13:39:17;;;;;;;;;2.00;2.00;;;;;;;;5043582;28;9102;-77
2021/10/22 13:41:46;;;;;;;;;3.00;1.33;;;;;;;;5050321;28;9198;-76
2021/10/22 13:44:13;;;;;;;;;1.67;1.00;;;;;;;;5056308;28;9110;-77
2021/10/22 13:46:42;;;;;;;;;2.00;2.00;;;;;;;;5063498;28;9190;-77
2021/10/22 13:49:09;;;;;;;;;1.00;1.00;;;;;;;;5062568;28;9259;-77
2021/10/22 13:51:37;;;;;;;;;4.33;3.00;;;;;;;;5064216;28;9315;-77
2021/10/22 13:54:04;;;;;;;;;1.00;1.00;;;;;;;;5062841;28;9191;-77
2021/10/22 13:56:32;;;;;;;;;3.00;2.00;;;;;;;;5052999;28;9214;-77
2021/10/22 13:59:00;;;;;;;;;4.00;2.00;;;;;;;;5061102;28;9211;-77
2021/10/22 14:01:28;;;;;;;;;1.00;1.00;;;;;;;;5034087;28;9190;-77
2021/10/22 14:03:57;;;;;;;;;2.00;2.00;;;;;;;;5044718;28;9030;-75
2021/10/22 14:06:24;;;;;;;;;2.00;2.00;;;;;;;;5062852;28;9279;-77
2021/10/22 14:08:53;;;;;;;;;2.00;2.00;;;;;;;;5064283;28;9259;-76
2021/10/22 14:11:21;;;;;;;;;4.00;2.33;;;;;;;;5062191;28;9132;-77
2021/10/22 14:13:51;;;;;;;;;4.33;3.00;;;;;;;;5056792;28;9105;-77
2021/10/22 14:16:32;;;;;;;;;2.00;2.00;;;;;;;;5062375;28;9018;-77
2021/10/22 14:30:02;;;;;;;;;2.67;2.67;;;;;;;;5051605;28;9991;-77
2021/10/22 14:32:32;;;;;;;;;2.67;2.00;;;;;;;;5062304;28;9064;-76
2021/10/22 14:35:00;;;;;;;;;3.00;2.00;;;;;;;;5049663;28;9103;-77
2021/10/22 14:37:29;;;;;;;;;1.00;1.00;;;;;;;;5055546;28;9104;-76
2021/10/22 14:39:57;;;;;;;;;2.00;2.00;;;;;;;;5052609;28;9027;-77
2021/10/22 14:42:28;;;;;;;;;2.00;2.00;;;;;;;;5067465;28;9989;-77
2021/10/22 14:44:56;;;;;;;;;1.00;1.00;;;;;;;;5059917;28;9956;-77
2021/10/22 14:47:34;;;;;;;;;2.67;2.67;;;;;;;;5062186;28;9301;-77
2021/10/22 14:50:07;;;;;;;;;0.67;0.67;;;;;;;;5066060;28;9268;-77
2021/10/22 14:52:44;;;;;;;;;2.33;2.33;;;;;;;;5053767;28;9016;-76
2021/10/22 14:55:23;;;;;;;;;1.67;1.00;;;;;;;;5066000;28;9194;-76
2021/10/22 14:57:51;;;;;;;;;4.00;4.00;;;;;;;;5066621;28;8966;-77
2021/10/22 15:00:21;;;;;;;;;1.33;1.33;;;;;;;;5058531;28;9119;-75
2021/10/22 15:02:49;;;;;;;;;2.00;2.00;;;;;;;;5061255;28;9116;-77
2021/10/22 15:05:18;;;;;;;;;2.00;2.00;;;;;;;;5060317;28;9108;-76
2021/10/22 15:07:45;;;;;;;;;2.33;2.33;;;;;;;;5065702;28;9114;-77
2021/10/22 15:10:12;;;;;;;;;2.00;2.00;;;;;;;;5067040;28;9076;-76
2021/10/22 15:12:40;;;;;;;;;3.00;2.00;;;;;;;;5065600;28;9125;-78
2021/10/22 15:15:08;;;;;;;;;3.00;3.00;;;;;;;;5066485;28;9157;-76